createdAt,value
2019-02-19T00:01:57.880Z,12.53
2019-02-19T00:06:57.565Z,13.73
2019-02-19T00:11:57.246Z,12.33
2019-02-19T00:16:57.922Z,12.97
2019-02-19T00:21:57.649Z,13.13
2019-02-19T00:26:57.268Z,13.30
2019-02-19T00:31:56.821Z,12.57
2019-02-19T00:36:56.398Z,12.10
2019-02-19T00:41:55.950Z,14.83
2019-02-19T00:46:55.513Z,13.63
2019-02-19T00:51:55.092Z,13.60
2019-02-19T00:56:54.754Z,13.20
2019-02-19T01:01:54.301Z,13.17
2019-02-19T01:06:53.883Z,11.90
2019-02-19T01:11:53.433Z,13.73
2019-02-19T01:16:53.005Z,12.87
2019-02-19T01:21:52.549Z,12.80
2019-02-19T01:26:52.089Z,12.60
2019-02-19T01:31:51.638Z,11.60
2019-02-19T01:36:51.185Z,12.13
2019-02-19T01:41:50.730Z,12.17
2019-02-19T01:46:50.266Z,12.07
2019-02-19T01:51:49.802Z,11.87
2019-02-19T01:56:49.366Z,12.17
2019-02-19T02:01:48.925Z,12.13
2019-02-19T02:06:48.470Z,12.13
2019-02-19T02:11:48.033Z,13.73
2019-02-19T02:16:47.605Z,14.37
2019-02-19T02:21:47.223Z,12.20
2019-02-19T02:26:46.757Z,12.00
2019-02-19T02:31:46.288Z,12.43
2019-02-19T02:36:45.838Z,13.13
2019-02-19T02:41:45.488Z,13.33
2019-02-19T02:46:45.035Z,13.37
2019-02-19T02:51:44.680Z,12.50
2019-02-19T02:56:44.235Z,13.27
2019-02-19T03:01:44.733Z,12.40
2019-02-19T03:07:18.796Z,11.07
2019-02-19T03:12:18.342Z,13.27
2019-02-19T03:17:17.884Z,12.80
2019-02-19T03:22:17.530Z,13.73
2019-02-19T03:27:17.058Z,11.77
2019-02-19T03:32:16.612Z,13.27
2019-02-19T03:37:16.163Z,13.40
2019-02-19T03:42:16.802Z,13.33
2019-02-19T03:47:16.442Z,12.00
2019-02-19T03:52:16.070Z,12.07
2019-02-19T03:57:15.206Z,14.00
2019-02-19T04:02:14.258Z,13.43
2019-02-19T04:07:13.322Z,13.90
2019-02-19T04:12:12.374Z,13.30
2019-02-19T04:17:11.465Z,12.77
2019-02-19T04:22:10.513Z,12.10
2019-02-19T04:27:09.597Z,12.57
2019-02-19T04:32:08.693Z,13.10
2019-02-19T04:37:07.736Z,12.37
2019-02-19T04:42:06.787Z,11.83
2019-02-19T04:47:05.833Z,12.43
2019-02-19T04:52:04.884Z,12.23
2019-02-19T04:57:03.939Z,11.63
2019-02-19T05:02:02.988Z,12.03
2019-02-19T05:07:02.455Z,10.90
2019-02-19T05:12:01.997Z,13.23
2019-02-19T05:17:01.551Z,12.73
2019-02-19T05:22:01.126Z,11.50
2019-02-19T05:27:00.684Z,11.83
2019-02-19T05:32:00.227Z,12.00
2019-02-19T05:36:59.794Z,10.67
2019-02-19T05:41:59.361Z,12.20
2019-02-19T05:46:58.909Z,10.53
2019-02-19T05:51:58.465Z,11.27
2019-02-19T05:56:58.033Z,11.87
2019-02-19T06:01:57.566Z,10.67
2019-02-19T06:06:57.123Z,11.30
2019-02-19T06:11:56.657Z,11.30
2019-02-19T06:16:58.582Z,10.90
2019-02-19T06:21:57.478Z,10.07
2019-02-19T06:26:57.044Z,11.93
2019-02-19T06:31:56.645Z,10.70
2019-02-19T06:36:56.261Z,11.03
2019-02-19T06:41:55.802Z,11.20
2019-02-19T06:46:55.375Z,10.93
2019-02-19T06:51:55.882Z,11.23
2019-02-19T06:56:55.431Z,11.23
2019-02-19T07:02:26.038Z,11.10
2019-02-19T07:07:25.591Z,10.53
2019-02-19T07:12:25.150Z,12.10
2019-02-19T07:17:24.750Z,11.63
2019-02-19T07:22:27.729Z,10.60
2019-02-19T07:27:27.731Z,11.70
2019-02-19T07:32:28.919Z,11.20
2019-02-19T07:37:28.418Z,11.30
2019-02-19T07:42:28.037Z,10.17
2019-02-19T07:47:27.667Z,10.37
2019-02-19T07:52:27.237Z,11.10
2019-02-19T07:57:26.787Z,9.90
2019-02-19T08:02:26.341Z,10.00
2019-02-19T08:07:25.915Z,10.37
2019-02-19T08:12:26.320Z,9.60
2019-02-19T08:17:33.100Z,10.53
2019-02-19T08:22:27.198Z,9.67
2019-02-19T08:27:26.739Z,10.70
2019-02-19T08:32:26.266Z,10.90
2019-02-19T08:37:25.818Z,12.30
2019-02-19T08:42:25.374Z,10.63
2019-02-19T08:47:24.958Z,10.20
2019-02-19T08:52:24.507Z,11.60
2019-02-19T08:57:24.050Z,12.17
2019-02-19T09:02:23.594Z,10.90
2019-02-19T09:07:23.215Z,11.50
2019-02-19T09:12:22.746Z,11.53
2019-02-19T09:17:22.286Z,13.23
2019-02-19T09:22:21.867Z,13.07
2019-02-19T09:27:21.421Z,15.47
2019-02-19T09:32:21.153Z,12.67
2019-02-19T09:37:21.142Z,14.53
2019-02-19T09:42:20.705Z,14.10
2019-02-19T09:47:20.532Z,14.47
2019-02-19T09:52:20.222Z,15.20
2019-02-19T09:57:19.762Z,15.30
2019-02-19T10:02:19.331Z,15.63
2019-02-19T10:07:19.475Z,14.90
2019-02-19T10:12:19.137Z,14.27
2019-02-19T10:17:18.752Z,16.30
2019-02-19T10:22:18.285Z,15.60
2019-02-19T10:27:17.822Z,15.90
2019-02-19T10:32:17.366Z,15.87
2019-02-19T10:37:16.898Z,14.90
2019-02-19T10:42:16.465Z,15.83
2019-02-19T10:47:16.008Z,15.50
2019-02-19T10:52:15.554Z,14.60
2019-02-19T10:57:15.107Z,16.50
2019-02-19T11:02:14.667Z,16.27
2019-02-19T11:07:14.217Z,15.90
2019-02-19T11:12:13.785Z,16.57
2019-02-19T11:17:13.425Z,15.43
2019-02-19T11:22:13.610Z,15.57
2019-02-19T11:27:13.529Z,15.70
2019-02-19T11:32:13.191Z,13.70
2019-02-19T11:37:12.730Z,14.60
2019-02-19T11:42:12.403Z,12.50
2019-02-19T11:47:12.022Z,14.23
2019-02-19T11:52:11.582Z,14.37
2019-02-19T11:57:11.130Z,12.87
2019-02-19T12:02:14.747Z,12.87
2019-02-19T12:07:14.312Z,12.60
2019-02-19T12:12:13.857Z,11.57
2019-02-19T12:17:13.418Z,14.57
2019-02-19T12:22:13.037Z,12.70
2019-02-19T12:27:12.630Z,13.50
2019-02-19T12:32:13.302Z,12.93
2019-02-19T12:37:12.842Z,13.80
2019-02-19T12:42:15.059Z,14.73
2019-02-19T12:47:14.884Z,14.27
2019-02-19T12:52:14.992Z,12.20
2019-02-19T12:57:14.776Z,13.07
2019-02-19T13:02:14.414Z,14.03
2019-02-19T13:07:13.966Z,14.70
2019-02-19T13:12:14.635Z,15.17
2019-02-19T13:17:14.230Z,12.57
2019-02-19T13:22:13.773Z,12.23
2019-02-19T13:27:13.350Z,12.77
2019-02-19T13:32:12.898Z,12.97
2019-02-19T13:37:12.507Z,9.03
2019-02-19T13:42:12.063Z,11.70
2019-02-19T13:47:12.699Z,10.80
2019-02-19T13:52:22.596Z,9.33
2019-02-19T13:57:20.544Z,10.10
2019-02-19T14:02:20.114Z,7.87
2019-02-19T14:07:19.661Z,10.10
2019-02-19T14:12:19.306Z,9.07
2019-02-19T14:17:22.656Z,9.63
2019-02-19T14:22:54.433Z,9.30
2019-02-19T14:28:11.829Z,8.13
2019-02-19T14:33:28.781Z,8.37
2019-02-19T14:38:47.454Z,8.67
2019-02-19T14:44:06.341Z,9.97
2019-02-19T14:49:18.842Z,8.43
2019-02-19T14:54:40.329Z,8.23
2019-02-19T14:59:55.982Z,9.40
2019-02-19T15:05:17.775Z,10.23
2019-02-19T15:10:26.458Z,9.03
2019-02-19T15:15:48.046Z,7.93
2019-02-19T15:21:06.706Z,8.30
2019-02-19T15:26:23.598Z,7.70
2019-02-19T15:31:37.534Z,7.30
2019-02-19T15:37:08.258Z,8.50
2019-02-19T15:42:29.771Z,7.97
2019-02-19T15:47:57.914Z,6.70
2019-02-19T15:53:15.523Z,7.00
2019-02-19T15:58:34.979Z,5.83
2019-02-19T16:03:41.031Z,6.10
2019-02-19T16:08:46.920Z,5.50
2019-02-19T16:13:59.543Z,4.57
2019-02-19T16:19:06.751Z,5.10
2019-02-19T16:24:24.133Z,5.70
2019-02-19T16:29:39.986Z,5.53
2019-02-19T16:34:52.736Z,4.97
2019-02-19T16:40:06.173Z,5.80
2019-02-19T16:45:16.673Z,4.90
2019-02-19T16:50:38.738Z,4.77
2019-02-19T16:55:56.375Z,4.10
2019-02-19T17:01:01.080Z,4.33
2019-02-19T17:06:22.318Z,5.10
2019-02-19T17:11:38.114Z,5.20
2019-02-19T17:17:02.828Z,5.33
2019-02-19T17:22:24.505Z,4.93
2019-02-19T17:27:39.053Z,4.70
2019-02-19T17:32:56.590Z,4.30
2019-02-19T17:38:14.622Z,4.07
2019-02-19T17:43:34.649Z,4.43
2019-02-19T17:48:59.187Z,4.10
2019-02-19T17:54:10.650Z,3.33
2019-02-19T17:59:20.824Z,2.37
2019-02-19T18:04:44.614Z,2.90
2019-02-19T18:10:03.627Z,2.70
2019-02-19T18:15:21.282Z,2.97
2019-02-19T18:20:20.829Z,3.30
2019-02-19T18:25:20.362Z,2.80
2019-02-19T18:30:19.891Z,2.23
2019-02-19T18:35:19.435Z,2.47
2019-02-19T18:40:18.970Z,2.53
2019-02-19T18:45:18.509Z,2.13
2019-02-19T18:50:18.059Z,2.53
2019-02-19T18:55:17.602Z,3.03
2019-02-19T19:00:17.194Z,3.00
2019-02-19T19:05:16.909Z,2.93
2019-02-19T19:10:16.474Z,2.90
2019-02-19T19:15:16.003Z,2.73
2019-02-19T19:20:15.614Z,3.57
2019-02-19T19:25:15.164Z,4.03
2019-02-19T19:30:14.873Z,3.23
2019-02-19T19:35:14.396Z,3.27
2019-02-19T19:40:13.919Z,3.03
2019-02-19T19:45:13.546Z,3.10
2019-02-19T19:50:13.104Z,3.50
2019-02-19T19:55:12.718Z,3.40
2019-02-19T20:00:12.634Z,3.57
2019-02-19T20:05:15.419Z,3.90
2019-02-19T20:10:15.389Z,3.97
2019-02-19T20:15:15.359Z,4.27
2019-02-19T20:20:16.921Z,3.73
2019-02-19T20:25:20.202Z,3.50
2019-02-19T20:30:19.991Z,4.73
2019-02-19T20:35:19.665Z,4.13
2019-02-19T20:40:19.375Z,4.27
2019-02-19T20:45:20.667Z,4.30
2019-02-19T20:50:20.570Z,3.70
2019-02-19T20:55:20.969Z,4.53
2019-02-19T21:00:20.566Z,4.80
2019-02-19T21:05:21.320Z,4.20
2019-02-19T21:10:21.393Z,4.10
2019-02-19T21:15:21.046Z,4.80
2019-02-19T21:20:22.078Z,4.80
2019-02-19T21:25:29.026Z,4.40
2019-02-19T21:30:23.621Z,4.93
2019-02-19T21:35:23.199Z,3.87
2019-02-19T21:40:22.854Z,4.63
2019-02-19T21:45:22.785Z,3.60
2019-02-19T21:50:22.345Z,3.70
2019-02-19T21:55:22.081Z,2.40
2019-02-19T22:00:22.116Z,2.40
2019-02-19T22:05:22.326Z,2.40
2019-02-19T22:10:22.018Z,1.90
2019-02-19T22:15:21.545Z,2.00
2019-02-19T22:20:34.385Z,2.43
2019-02-19T22:25:33.947Z,1.50
2019-02-19T22:30:33.702Z,1.93
2019-02-19T22:35:33.302Z,1.40
2019-02-19T22:40:32.866Z,2.43
2019-02-19T22:45:32.418Z,1.93
2019-02-19T22:50:32.586Z,2.40
2019-02-19T22:55:54.532Z,2.47
2019-02-19T23:01:03.907Z,2.77
2019-02-19T23:06:05.230Z,2.80
2019-02-19T23:11:04.863Z,3.43
2019-02-19T23:16:04.466Z,4.10
2019-02-19T23:21:04.088Z,3.27
2019-02-19T23:26:03.626Z,3.10
2019-02-19T23:31:03.282Z,4.67
2019-02-19T23:36:07.255Z,4.83
2019-02-19T23:41:07.203Z,4.10
2019-02-19T23:46:06.918Z,4.43
2019-02-19T23:51:07.442Z,6.00
2019-02-19T23:56:06.991Z,6.20
